sensor_id;sensor_type;location;lat;lon;timestamp;temperature;humidity
3528;DHT22;1778;47.966;7.854;2023-01-09T00:00:39;9.60;99.90
3528;DHT22;1778;47.966;7.854;2023-01-09T00:01:45;9.50;99.90
3528;DHT22;1778;47.966;7.854;2023-01-09T00:02:46;9.50;99.90
3528;DHT22;1778;47.966;7.854;2023-01-09T00:03:48;9.60;99.90
3528;DHT22;1778;47.966;7.854;2023-01-09T00:04:49;9.60;99.90
3528;DHT22;1778;47.966;7.854;2023-01-09T00:05:52;9.60;99.90
3528;DHT22;1778;47.966;7.854;2023-01-09T00:06:53;9.60;99.90
3528;DHT22;1778;47.966;7.854;2023-01-09T00:07:54;9.60;99.90
3528;DHT22;1778;47.966;7.854;2023-01-09T00:08:56;9.60;99.90
3528;DHT22;1778;47.966;7.854;2023-01-09T00:09:58;9.60;99.90
3528;DHT22;1778;47.966;7.854;2023-01-09T00:10:59;9.60;99.90
3528;DHT22;1778;47.966;7.854;2023-01-09T00:12:01;9.70;99.90
3528;DHT22;1778;47.966;7.854;2023-01-09T00:13:03;9.60;99.90
3528;DHT22;1778;47.966;7.854;2023-01-09T00:14:04;9.60;99.90
3528;DHT22;1778;47.966;7.854;2023-01-09T00:15:07;9.60;99.90
3528;DHT22;1778;47.966;7.854;2023-01-09T00:16:08;9.70;99.90
3528;DHT22;1778;47.966;7.854;2023-01-09T00:17:10;9.70;99.90
3528;DHT22;1778;47.966;7.854;2023-01-09T00:18:11;9.70;99.90
3528;DHT22;1778;47.966;7.854;2023-01-09T00:19:13;9.70;99.90
3528;DHT22;1778;47.966;7.854;2023-01-09T00:20:15;9.70;99.90
3528;DHT22;1778;47.966;7.854;2023-01-09T00:21:17;9.70;99.90
3528;DHT22;1778;47.966;7.854;2023-01-09T00:22:19;9.70;99.90
3528;DHT22;1778;47.966;7.854;2023-01-09T00:23:21;9.70;99.90
3528;DHT22;1778;47.966;7.854;2023-01-09T00:24:22;9.70;99.90
3528;DHT22;1778;47.966;7.854;2023-01-09T00:25:24;9.80;99.90
3528;DHT22;1778;47.966;7.854;2023-01-09T00:26:25;9.80;99.90
3528;DHT22;1778;47.966;7.854;2023-01-09T00:27:30;9.80;99.90
3528;DHT22;1778;47.966;7.854;2023-01-09T00:28:33;9.80;99.90
3528;DHT22;1778;47.966;7.854;2023-01-09T00:29:34;9.90;99.90
3528;DHT22;1778;47.966;7.854;2023-01-09T00:30:36;9.90;99.90
3528;DHT22;1778;47.966;7.854;2023-01-09T00:31:37;9.90;99.90
3528;DHT22;1778;47.966;7.854;2023-01-09T00:32:39;9.90;99.90
3528;DHT22;1778;47.966;7.854;2023-01-09T00:33:51;9.80;99.90
3528;DHT22;1778;47.966;7.854;2023-01-09T00:34:55;9.80;99.90
3528;DHT22;1778;47.966;7.854;2023-01-09T00:35:57;9.80;99.90
3528;DHT22;1778;47.966;7.854;2023-01-09T00:36:58;9.80;99.90
3528;DHT22;1778;47.966;7.854;2023-01-09T00:38:00;9.70;99.90
3528;DHT22;1778;47.966;7.854;2023-01-09T00:39:04;9.70;99.90
3528;DHT22;1778;47.966;7.854;2023-01-09T00:40:06;9.70;99.90
3528;DHT22;1778;47.966;7.854;2023-01-09T00:41:13;9.70;99.90
3528;DHT22;1778;47.966;7.854;2023-01-09T00:42:19;9.70;99.90
3528;DHT22;1778;47.966;7.854;2023-01-09T00:43:24;9.60;99.90
3528;DHT22;1778;47.966;7.854;2023-01-09T00:44:34;9.70;99.90
3528;DHT22;1778;47.966;7.854;2023-01-09T00:45:38;9.70;99.90
3528;DHT22;1778;47.966;7.854;2023-01-09T00:46:44;9.70;99.90
3528;DHT22;1778;47.966;7.854;2023-01-09T00:47:50;9.60;99.90
3528;DHT22;1778;47.966;7.854;2023-01-09T00:48:52;9.60;99.90
3528;DHT22;1778;47.966;7.854;2023-01-09T00:49:54;9.60;99.90
3528;DHT22;1778;47.966;7.854;2023-01-09T00:50:59;9.50;99.90
3528;DHT22;1778;47.966;7.854;2023-01-09T00:52:02;9.50;99.90
3528;DHT22;1778;47.966;7.854;2023-01-09T00:53:14;9.60;99.90
3528;DHT22;1778;47.966;7.854;2023-01-09T00:54:18;9.50;99.90
3528;DHT22;1778;47.966;7.854;2023-01-09T00:55:19;9.50;99.90
3528;DHT22;1778;47.966;7.854;2023-01-09T00:56:21;9.50;99.90
3528;DHT22;1778;47.966;7.854;2023-01-09T00:57:23;9.50;99.90
3528;DHT22;1778;47.966;7.854;2023-01-09T00:58:25;9.40;99.90
3528;DHT22;1778;47.966;7.854;2023-01-09T00:59:27;9.40;99.90
3528;DHT22;1778;47.966;7.854;2023-01-09T01:00:29;9.40;99.90
3528;DHT22;1778;47.966;7.854;2023-01-09T01:01:30;9.40;99.90
3528;DHT22;1778;47.966;7.854;2023-01-09T01:02:32;9.40;99.90
3528;DHT22;1778;47.966;7.854;2023-01-09T01:03:34;9.40;99.90
3528;DHT22;1778;47.966;7.854;2023-01-09T01:04:35;9.40;99.90
3528;DHT22;1778;47.966;7.854;2023-01-09T01:05:55;9.40;99.90
3528;DHT22;1778;47.966;7.854;2023-01-09T01:07:16;9.30;99.90
3528;DHT22;1778;47.966;7.854;2023-01-09T01:08:36;9.20;99.90
3528;DHT22;1778;47.966;7.854;2023-01-09T01:09:38;9.20;99.90
3528;DHT22;1778;47.966;7.854;2023-01-09T01:10:40;9.20;99.90
3528;DHT22;1778;47.966;7.854;2023-01-09T01:11:42;9.20;99.90
3528;DHT22;1778;47.966;7.854;2023-01-09T01:12:43;9.20;99.90
3528;DHT22;1778;47.966;7.854;2023-01-09T01:13:45;9.20;99.90
3528;DHT22;1778;47.966;7.854;2023-01-09T01:14:47;9.10;99.90
3528;DHT22;1778;47.966;7.854;2023-01-09T01:15:48;9.10;99.90
3528;DHT22;1778;47.966;7.854;2023-01-09T01:16:50;9.10;99.90
3528;DHT22;1778;47.966;7.854;2023-01-09T01:17:51;9.10;99.90
3528;DHT22;1778;47.966;7.854;2023-01-09T01:18:53;9.10;99.90
3528;DHT22;1778;47.966;7.854;2023-01-09T01:19:54;9.10;99.90
3528;DHT22;1778;47.966;7.854;2023-01-09T01:20:56;9.00;99.90
3528;DHT22;1778;47.966;7.854;2023-01-09T01:21:58;9.00;99.90
3528;DHT22;1778;47.966;7.854;2023-01-09T01:22:59;9.00;99.90
3528;DHT22;1778;47.966;7.854;2023-01-09T01:24:01;8.90;99.90
3528;DHT22;1778;47.966;7.854;2023-01-09T01:25:03;8.90;99.90
3528;DHT22;1778;47.966;7.854;2023-01-09T01:26:14;8.90;99.90
3528;DHT22;1778;47.966;7.854;2023-01-09T01:27:16;8.90;99.90
3528;DHT22;1778;47.966;7.854;2023-01-09T01:28:17;8.90;99.90
3528;DHT22;1778;47.966;7.854;2023-01-09T01:29:19;8.90;99.90
3528;DHT22;1778;47.966;7.854;2023-01-09T01:30:21;8.90;99.90
3528;DHT22;1778;47.966;7.854;2023-01-09T01:31:23;8.90;99.90
3528;DHT22;1778;47.966;7.854;2023-01-09T01:32:24;8.90;99.90
3528;DHT22;1778;47.966;7.854;2023-01-09T01:33:26;8.90;99.90
3528;DHT22;1778;47.966;7.854;2023-01-09T01:34:28;8.80;99.90
3528;DHT22;1778;47.966;7.854;2023-01-09T01:35:30;8.80;99.90
3528;DHT22;1778;47.966;7.854;2023-01-09T01:36:32;8.80;99.90
3528;DHT22;1778;47.966;7.854;2023-01-09T01:37:35;8.80;99.90
3528;DHT22;1778;47.966;7.854;2023-01-09T01:38:37;8.90;99.90
3528;DHT22;1778;47.966;7.854;2023-01-09T01:39:39;8.90;99.90
3528;DHT22;1778;47.966;7.854;2023-01-09T01:40:40;8.80;99.90
3528;DHT22;1778;47.966;7.854;2023-01-09T01:41:42;8.80;99.90
3528;DHT22;1778;47.966;7.854;2023-01-09T01:42:48;8.90;99.90
3528;DHT22;1778;47.966;7.854;2023-01-09T01:43:55;8.90;99.90
3528;DHT22;1778;47.966;7.854;2023-01-09T01:46:01;8.90;99.90
3528;DHT22;1778;47.966;7.854;2023-01-09T01:47:03;8.80;99.90
3528;DHT22;1778;47.966;7.854;2023-01-09T01:49:14;8.90;99.90
3528;DHT22;1778;47.966;7.854;2023-01-09T01:50:24;8.90;99.90
3528;DHT22;1778;47.966;7.854;2023-01-09T01:51:28;8.80;99.90
3528;DHT22;1778;47.966;7.854;2023-01-09T01:52:31;8.80;99.90
3528;DHT22;1778;47.966;7.854;2023-01-09T01:53:47;8.90;99.90
3528;DHT22;1778;47.966;7.854;2023-01-09T01:54:51;8.90;99.90
3528;DHT22;1778;47.966;7.854;2023-01-09T01:56:23;8.90;99.90
3528;DHT22;1778;47.966;7.854;2023-01-09T01:57:26;9.00;99.90
3528;DHT22;1778;47.966;7.854;2023-01-09T01:58:28;8.90;99.90
3528;DHT22;1778;47.966;7.854;2023-01-09T01:59:36;9.00;99.90
3528;DHT22;1778;47.966;7.854;2023-01-09T02:00:41;8.90;99.90
3528;DHT22;1778;47.966;7.854;2023-01-09T02:01:47;9.00;99.90
3528;DHT22;1778;47.966;7.854;2023-01-09T02:02:49;9.00;99.90
3528;DHT22;1778;47.966;7.854;2023-01-09T02:03:52;9.00;99.90
3528;DHT22;1778;47.966;7.854;2023-01-09T02:04:56;9.00;99.90
3528;DHT22;1778;47.966;7.854;2023-01-09T02:05:59;9.00;99.90
3528;DHT22;1778;47.966;7.854;2023-01-09T02:07:04;9.00;99.90
3528;DHT22;1778;47.966;7.854;2023-01-09T02:08:08;9.00;99.90
3528;DHT22;1778;47.966;7.854;2023-01-09T02:09:10;9.00;99.90
3528;DHT22;1778;47.966;7.854;2023-01-09T02:10:16;9.10;99.90
3528;DHT22;1778;47.966;7.854;2023-01-09T02:11:19;9.10;99.90
3528;DHT22;1778;47.966;7.854;2023-01-09T02:12:24;9.00;99.90
3528;DHT22;1778;47.966;7.854;2023-01-09T02:13:26;9.00;99.90
3528;DHT22;1778;47.966;7.854;2023-01-09T02:14:31;9.10;99.90
3528;DHT22;1778;47.966;7.854;2023-01-09T02:15:53;9.00;99.90
3528;DHT22;1778;47.966;7.854;2023-01-09T02:18:41;9.10;99.90
3528;DHT22;1778;47.966;7.854;2023-01-09T02:31:24;9.10;99.90
3528;DHT22;1778;47.966;7.854;2023-01-09T02:34:20;9.10;99.90
3528;DHT22;1778;47.966;7.854;2023-01-09T02:35:38;9.10;99.90
3528;DHT22;1778;47.966;7.854;2023-01-09T02:36:54;9.00;99.90
3528;DHT22;1778;47.966;7.854;2023-01-09T02:39:25;9.00;99.90
3528;DHT22;1778;47.966;7.854;2023-01-09T02:40:37;8.90;99.90
3528;DHT22;1778;47.966;7.854;2023-01-09T02:43:05;9.00;99.90
3528;DHT22;1778;47.966;7.854;2023-01-09T02:44:20;9.00;99.90
3528;DHT22;1778;47.966;7.854;2023-01-09T02:45:23;8.90;99.90
3528;DHT22;1778;47.966;7.854;2023-01-09T02:46:24;9.00;99.90
3528;DHT22;1778;47.966;7.854;2023-01-09T02:48:30;8.90;99.90
3528;DHT22;1778;47.966;7.854;2023-01-09T02:49:36;9.00;99.90
3528;DHT22;1778;47.966;7.854;2023-01-09T02:50:46;9.00;99.90
3528;DHT22;1778;47.966;7.854;2023-01-09T02:52:03;9.00;99.90
3528;DHT22;1778;47.966;7.854;2023-01-09T02:56:18;8.90;99.90
3528;DHT22;1778;47.966;7.854;2023-01-09T02:58:56;8.90;99.90
3528;DHT22;1778;47.966;7.854;2023-01-09T03:04:09;9.00;99.90
3528;DHT22;1778;47.966;7.854;2023-01-09T03:05:29;9.00;99.90
3528;DHT22;1778;47.966;7.854;2023-01-09T03:07:20;9.00;99.90
3528;DHT22;1778;47.966;7.854;2023-01-09T03:08:03;9.00;99.90
3528;DHT22;1778;47.966;7.854;2023-01-09T03:09:14;8.90;99.90
3528;DHT22;1778;47.966;7.854;2023-01-09T03:10:24;8.90;99.90
3528;DHT22;1778;47.966;7.854;2023-01-09T03:11:30;8.90;99.90
3528;DHT22;1778;47.966;7.854;2023-01-09T03:12:35;8.90;99.90
3528;DHT22;1778;47.966;7.854;2023-01-09T03:13:44;8.90;99.90
3528;DHT22;1778;47.966;7.854;2023-01-09T03:14:50;8.80;99.90
3528;DHT22;1778;47.966;7.854;2023-01-09T03:15:54;8.80;99.90
3528;DHT22;1778;47.966;7.854;2023-01-09T03:17:03;8.80;99.90
3528;DHT22;1778;47.966;7.854;2023-01-09T03:18:08;8.80;99.90
3528;DHT22;1778;47.966;7.854;2023-01-09T03:19:14;8.80;99.90
3528;DHT22;1778;47.966;7.854;2023-01-09T03:20:21;8.80;99.90
3528;DHT22;1778;47.966;7.854;2023-01-09T03:21:25;8.80;99.90
3528;DHT22;1778;47.966;7.854;2023-01-09T03:22:26;8.70;99.90
3528;DHT22;1778;47.966;7.854;2023-01-09T03:23:48;8.70;99.90
3528;DHT22;1778;47.966;7.854;2023-01-09T03:24:49;8.80;99.90
3528;DHT22;1778;47.966;7.854;2023-01-09T03:25:51;8.60;99.90
3528;DHT22;1778;47.966;7.854;2023-01-09T03:26:52;8.50;99.90
3528;DHT22;1778;47.966;7.854;2023-01-09T03:27:59;8.50;99.90
3528;DHT22;1778;47.966;7.854;2023-01-09T03:29:01;8.40;99.90
3528;DHT22;1778;47.966;7.854;2023-01-09T03:30:03;8.40;99.90
3528;DHT22;1778;47.966;7.854;2023-01-09T03:31:05;8.40;99.90
3528;DHT22;1778;47.966;7.854;2023-01-09T03:32:07;8.50;99.90
3528;DHT22;1778;47.966;7.854;2023-01-09T03:33:08;8.50;99.90
3528;DHT22;1778;47.966;7.854;2023-01-09T03:34:10;8.50;99.90
3528;DHT22;1778;47.966;7.854;2023-01-09T03:35:12;8.50;99.90
3528;DHT22;1778;47.966;7.854;2023-01-09T03:36:15;8.40;99.90
3528;DHT22;1778;47.966;7.854;2023-01-09T03:37:17;8.40;99.90
3528;DHT22;1778;47.966;7.854;2023-01-09T03:38:18;8.40;99.90
3528;DHT22;1778;47.966;7.854;2023-01-09T03:39:20;8.40;99.90
3528;DHT22;1778;47.966;7.854;2023-01-09T03:40:22;8.40;99.90
3528;DHT22;1778;47.966;7.854;2023-01-09T03:41:23;8.40;99.90
3528;DHT22;1778;47.966;7.854;2023-01-09T03:42:25;8.30;99.90
3528;DHT22;1778;47.966;7.854;2023-01-09T03:43:27;8.30;99.90
3528;DHT22;1778;47.966;7.854;2023-01-09T03:44:28;8.40;99.90
3528;DHT22;1778;47.966;7.854;2023-01-09T03:45:30;8.40;99.90
3528;DHT22;1778;47.966;7.854;2023-01-09T03:46:31;8.20;99.90
3528;DHT22;1778;47.966;7.854;2023-01-09T03:47:33;8.20;99.90
3528;DHT22;1778;47.966;7.854;2023-01-09T03:48:34;8.20;99.90
3528;DHT22;1778;47.966;7.854;2023-01-09T03:49:36;8.20;99.90
3528;DHT22;1778;47.966;7.854;2023-01-09T03:50:38;8.20;99.90
3528;DHT22;1778;47.966;7.854;2023-01-09T03:51:39;8.20;99.90
3528;DHT22;1778;47.966;7.854;2023-01-09T03:52:40;8.20;99.90
3528;DHT22;1778;47.966;7.854;2023-01-09T03:53:42;8.20;99.90
3528;DHT22;1778;47.966;7.854;2023-01-09T03:54:44;8.30;99.90
3528;DHT22;1778;47.966;7.854;2023-01-09T03:55:47;8.30;99.90
3528;DHT22;1778;47.966;7.854;2023-01-09T03:56:48;8.30;99.90
3528;DHT22;1778;47.966;7.854;2023-01-09T03:57:50;8.30;99.90
3528;DHT22;1778;47.966;7.854;2023-01-09T03:58:53;8.20;99.90
3528;DHT22;1778;47.966;7.854;2023-01-09T03:59:54;8.30;99.90
3528;DHT22;1778;47.966;7.854;2023-01-09T04:00:58;8.30;99.90
3528;DHT22;1778;47.966;7.854;2023-01-09T04:02:00;8.20;99.90
3528;DHT22;1778;47.966;7.854;2023-01-09T04:03:05;8.20;99.90
3528;DHT22;1778;47.966;7.854;2023-01-09T04:04:06;8.30;99.90
3528;DHT22;1778;47.966;7.854;2023-01-09T04:05:08;8.20;99.90
3528;DHT22;1778;47.966;7.854;2023-01-09T04:06:10;8.20;99.90
3528;DHT22;1778;47.966;7.854;2023-01-09T04:07:11;8.20;99.90
3528;DHT22;1778;47.966;7.854;2023-01-09T04:08:13;8.20;99.90
3528;DHT22;1778;47.966;7.854;2023-01-09T04:09:15;8.10;99.90
3528;DHT22;1778;47.966;7.854;2023-01-09T04:10:16;8.10;99.90
3528;DHT22;1778;47.966;7.854;2023-01-09T04:11:18;8.00;99.90
3528;DHT22;1778;47.966;7.854;2023-01-09T04:12:22;8.00;99.90
3528;DHT22;1778;47.966;7.854;2023-01-09T04:13:24;8.00;99.90
3528;DHT22;1778;47.966;7.854;2023-01-09T04:14:25;7.90;99.90
3528;DHT22;1778;47.966;7.854;2023-01-09T04:15:27;7.90;99.90
3528;DHT22;1778;47.966;7.854;2023-01-09T04:16:28;7.80;99.90
3528;DHT22;1778;47.966;7.854;2023-01-09T04:17:30;7.90;99.90
3528;DHT22;1778;47.966;7.854;2023-01-09T04:18:31;7.80;99.90
3528;DHT22;1778;47.966;7.854;2023-01-09T04:19:33;7.80;99.90
3528;DHT22;1778;47.966;7.854;2023-01-09T04:20:35;7.80;99.90
3528;DHT22;1778;47.966;7.854;2023-01-09T04:21:36;7.80;99.90
3528;DHT22;1778;47.966;7.854;2023-01-09T04:22:38;7.80;99.90
3528;DHT22;1778;47.966;7.854;2023-01-09T04:23:39;7.70;99.90
3528;DHT22;1778;47.966;7.854;2023-01-09T04:24:41;7.60;99.90
3528;DHT22;1778;47.966;7.854;2023-01-09T04:25:42;7.60;99.90
3528;DHT22;1778;47.966;7.854;2023-01-09T04:26:44;7.60;99.90
3528;DHT22;1778;47.966;7.854;2023-01-09T04:27:45;7.60;99.90
3528;DHT22;1778;47.966;7.854;2023-01-09T04:28:49;7.60;99.90
3528;DHT22;1778;47.966;7.854;2023-01-09T04:29:50;7.50;99.90
3528;DHT22;1778;47.966;7.854;2023-01-09T04:30:52;7.50;99.90
3528;DHT22;1778;47.966;7.854;2023-01-09T04:31:53;7.60;99.90
3528;DHT22;1778;47.966;7.854;2023-01-09T04:32:55;7.60;99.90
3528;DHT22;1778;47.966;7.854;2023-01-09T04:33:56;7.50;99.90
3528;DHT22;1778;47.966;7.854;2023-01-09T04:34:58;7.50;99.90
3528;DHT22;1778;47.966;7.854;2023-01-09T04:35:59;7.50;99.90
3528;DHT22;1778;47.966;7.854;2023-01-09T04:37:01;7.50;99.90
3528;DHT22;1778;47.966;7.854;2023-01-09T04:38:02;7.50;99.90
3528;DHT22;1778;47.966;7.854;2023-01-09T04:39:03;7.40;99.90
3528;DHT22;1778;47.966;7.854;2023-01-09T04:40:06;7.30;99.90
3528;DHT22;1778;47.966;7.854;2023-01-09T04:41:11;7.30;99.90
3528;DHT22;1778;47.966;7.854;2023-01-09T04:42:32;7.40;99.90
3528;DHT22;1778;47.966;7.854;2023-01-09T04:43:34;7.40;99.90
3528;DHT22;1778;47.966;7.854;2023-01-09T04:44:35;7.30;99.90
3528;DHT22;1778;47.966;7.854;2023-01-09T04:45:37;7.30;99.90
3528;DHT22;1778;47.966;7.854;2023-01-09T04:46:39;7.20;99.90
3528;DHT22;1778;47.966;7.854;2023-01-09T04:47:40;7.20;99.90
3528;DHT22;1778;47.966;7.854;2023-01-09T04:48:42;7.20;99.90
3528;DHT22;1778;47.966;7.854;2023-01-09T04:49:43;7.20;99.90
3528;DHT22;1778;47.966;7.854;2023-01-09T04:50:45;7.20;99.90
3528;DHT22;1778;47.966;7.854;2023-01-09T04:51:46;7.10;99.90
3528;DHT22;1778;47.966;7.854;2023-01-09T04:52:48;7.10;99.90
3528;DHT22;1778;47.966;7.854;2023-01-09T04:53:49;7.20;99.90
3528;DHT22;1778;47.966;7.854;2023-01-09T04:54:51;7.20;99.90
3528;DHT22;1778;47.966;7.854;2023-01-09T04:55:52;7.20;99.90
3528;DHT22;1778;47.966;7.854;2023-01-09T04:56:54;7.20;99.90
3528;DHT22;1778;47.966;7.854;2023-01-09T04:57:55;7.20;99.90
3528;DHT22;1778;47.966;7.854;2023-01-09T04:58:57;7.10;99.90
3528;DHT22;1778;47.966;7.854;2023-01-09T04:59:58;7.10;99.90
3528;DHT22;1778;47.966;7.854;2023-01-09T05:01:00;7.10;99.90
3528;DHT22;1778;47.966;7.854;2023-01-09T05:02:01;7.10;99.90
3528;DHT22;1778;47.966;7.854;2023-01-09T05:03:03;7.20;99.90
3528;DHT22;1778;47.966;7.854;2023-01-09T05:04:05;7.10;99.90
3528;DHT22;1778;47.966;7.854;2023-01-09T05:05:09;7.00;99.90
3528;DHT22;1778;47.966;7.854;2023-01-09T05:06:12;7.10;99.90
3528;DHT22;1778;47.966;7.854;2023-01-09T05:07:13;7.00;99.90
3528;DHT22;1778;47.966;7.854;2023-01-09T05:08:15;7.00;99.90
3528;DHT22;1778;47.966;7.854;2023-01-09T05:09:17;7.00;99.90
3528;DHT22;1778;47.966;7.854;2023-01-09T05:10:18;7.00;99.90
3528;DHT22;1778;47.966;7.854;2023-01-09T05:11:20;7.00;99.90
3528;DHT22;1778;47.966;7.854;2023-01-09T05:12:21;7.00;99.90
3528;DHT22;1778;47.966;7.854;2023-01-09T05:13:22;7.00;99.90
3528;DHT22;1778;47.966;7.854;2023-01-09T05:14:24;7.10;99.90
3528;DHT22;1778;47.966;7.854;2023-01-09T05:15:25;7.00;99.90
3528;DHT22;1778;47.966;7.854;2023-01-09T05:16:28;6.90;99.90
3528;DHT22;1778;47.966;7.854;2023-01-09T05:17:31;6.90;99.90
3528;DHT22;1778;47.966;7.854;2023-01-09T05:18:33;6.90;99.90
3528;DHT22;1778;47.966;7.854;2023-01-09T05:19:34;7.00;99.90
3528;DHT22;1778;47.966;7.854;2023-01-09T05:20:36;7.00;99.90
3528;DHT22;1778;47.966;7.854;2023-01-09T05:21:37;6.90;99.90
3528;DHT22;1778;47.966;7.854;2023-01-09T05:22:39;6.90;99.90
3528;DHT22;1778;47.966;7.854;2023-01-09T05:23:40;6.90;99.90
3528;DHT22;1778;47.966;7.854;2023-01-09T05:24:42;6.80;99.90
3528;DHT22;1778;47.966;7.854;2023-01-09T05:25:43;6.80;99.90
3528;DHT22;1778;47.966;7.854;2023-01-09T05:26:45;6.80;99.90
3528;DHT22;1778;47.966;7.854;2023-01-09T05:27:46;6.80;99.90
3528;DHT22;1778;47.966;7.854;2023-01-09T05:28:48;6.80;99.90
3528;DHT22;1778;47.966;7.854;2023-01-09T05:29:50;6.80;99.90
3528;DHT22;1778;47.966;7.854;2023-01-09T05:30:51;6.80;99.90
3528;DHT22;1778;47.966;7.854;2023-01-09T05:31:53;6.90;99.90
3528;DHT22;1778;47.966;7.854;2023-01-09T05:32:55;6.80;99.90
3528;DHT22;1778;47.966;7.854;2023-01-09T05:33:56;6.90;99.90
3528;DHT22;1778;47.966;7.854;2023-01-09T05:35:01;6.90;99.90
3528;DHT22;1778;47.966;7.854;2023-01-09T05:36:02;6.90;99.90
3528;DHT22;1778;47.966;7.854;2023-01-09T05:37:04;6.90;99.90
3528;DHT22;1778;47.966;7.854;2023-01-09T05:38:05;6.90;99.90
3528;DHT22;1778;47.966;7.854;2023-01-09T05:39:07;6.90;99.90
3528;DHT22;1778;47.966;7.854;2023-01-09T05:40:09;7.00;99.90
3528;DHT22;1778;47.966;7.854;2023-01-09T05:41:11;7.00;99.90
3528;DHT22;1778;47.966;7.854;2023-01-09T05:42:13;7.00;99.90
3528;DHT22;1778;47.966;7.854;2023-01-09T05:43:14;7.00;99.90
3528;DHT22;1778;47.966;7.854;2023-01-09T05:44:16;7.00;99.90
3528;DHT22;1778;47.966;7.854;2023-01-09T05:45:17;7.00;99.90
3528;DHT22;1778;47.966;7.854;2023-01-09T05:46:19;7.00;99.90
3528;DHT22;1778;47.966;7.854;2023-01-09T05:47:20;7.10;99.90
3528;DHT22;1778;47.966;7.854;2023-01-09T05:48:22;7.10;99.90
3528;DHT22;1778;47.966;7.854;2023-01-09T05:49:23;7.00;99.90
3528;DHT22;1778;47.966;7.854;2023-01-09T05:50:25;7.00;99.90
3528;DHT22;1778;47.966;7.854;2023-01-09T05:51:26;7.00;99.90
3528;DHT22;1778;47.966;7.854;2023-01-09T05:52:28;7.00;99.90
3528;DHT22;1778;47.966;7.854;2023-01-09T05:53:30;7.00;99.90
3528;DHT22;1778;47.966;7.854;2023-01-09T05:54:32;7.00;99.90
3528;DHT22;1778;47.966;7.854;2023-01-09T05:55:34;6.90;99.90
3528;DHT22;1778;47.966;7.854;2023-01-09T05:56:35;6.90;99.90
3528;DHT22;1778;47.966;7.854;2023-01-09T05:57:37;6.90;99.90
3528;DHT22;1778;47.966;7.854;2023-01-09T05:58:38;6.90;99.90
3528;DHT22;1778;47.966;7.854;2023-01-09T05:59:40;6.80;99.90
3528;DHT22;1778;47.966;7.854;2023-01-09T06:00:42;6.80;99.90
3528;DHT22;1778;47.966;7.854;2023-01-09T06:01:43;6.80;99.90
3528;DHT22;1778;47.966;7.854;2023-01-09T06:02:45;6.80;99.90
3528;DHT22;1778;47.966;7.854;2023-01-09T06:03:46;6.80;99.90
3528;DHT22;1778;47.966;7.854;2023-01-09T06:04:48;6.80;99.90
3528;DHT22;1778;47.966;7.854;2023-01-09T06:05:49;6.80;99.90
3528;DHT22;1778;47.966;7.854;2023-01-09T06:06:52;6.80;99.90
3528;DHT22;1778;47.966;7.854;2023-01-09T06:07:53;6.90;99.90
3528;DHT22;1778;47.966;7.854;2023-01-09T06:08:55;6.90;99.90
3528;DHT22;1778;47.966;7.854;2023-01-09T06:09:56;6.90;99.90
3528;DHT22;1778;47.966;7.854;2023-01-09T06:10:58;6.90;99.90
3528;DHT22;1778;47.966;7.854;2023-01-09T06:11:59;7.00;99.90
3528;DHT22;1778;47.966;7.854;2023-01-09T06:13:01;7.00;99.90
3528;DHT22;1778;47.966;7.854;2023-01-09T06:14:03;7.00;99.90
3528;DHT22;1778;47.966;7.854;2023-01-09T06:15:05;7.10;99.90
3528;DHT22;1778;47.966;7.854;2023-01-09T06:16:09;7.20;99.90
3528;DHT22;1778;47.966;7.854;2023-01-09T06:17:11;7.10;99.90
3528;DHT22;1778;47.966;7.854;2023-01-09T06:18:12;7.10;99.90
3528;DHT22;1778;47.966;7.854;2023-01-09T06:19:14;7.10;99.90
3528;DHT22;1778;47.966;7.854;2023-01-09T06:20:15;7.10;99.90
3528;DHT22;1778;47.966;7.854;2023-01-09T06:21:17;7.20;99.90
3528;DHT22;1778;47.966;7.854;2023-01-09T06:22:19;7.20;99.90
3528;DHT22;1778;47.966;7.854;2023-01-09T06:23:20;7.10;99.90
3528;DHT22;1778;47.966;7.854;2023-01-09T06:24:22;7.20;99.90
3528;DHT22;1778;47.966;7.854;2023-01-09T06:25:23;7.20;99.90
3528;DHT22;1778;47.966;7.854;2023-01-09T06:26:25;7.20;99.90
3528;DHT22;1778;47.966;7.854;2023-01-09T06:27:27;7.30;99.90
3528;DHT22;1778;47.966;7.854;2023-01-09T06:28:28;7.30;99.90
3528;DHT22;1778;47.966;7.854;2023-01-09T06:29:30;7.30;99.90
3528;DHT22;1778;47.966;7.854;2023-01-09T06:30:31;7.20;99.90
3528;DHT22;1778;47.966;7.854;2023-01-09T06:31:34;7.20;99.90
3528;DHT22;1778;47.966;7.854;2023-01-09T06:32:36;7.10;99.90
3528;DHT22;1778;47.966;7.854;2023-01-09T06:33:37;7.10;99.90
3528;DHT22;1778;47.966;7.854;2023-01-09T06:34:39;7.10;99.90
3528;DHT22;1778;47.966;7.854;2023-01-09T06:35:41;7.20;99.90
3528;DHT22;1778;47.966;7.854;2023-01-09T06:36:42;7.20;99.90
3528;DHT22;1778;47.966;7.854;2023-01-09T06:37:44;7.20;99.90
3528;DHT22;1778;47.966;7.854;2023-01-09T06:38:46;7.10;99.90
3528;DHT22;1778;47.966;7.854;2023-01-09T06:39:47;7.10;99.90
3528;DHT22;1778;47.966;7.854;2023-01-09T06:40:49;7.10;99.90
3528;DHT22;1778;47.966;7.854;2023-01-09T06:41:51;7.20;99.90
3528;DHT22;1778;47.966;7.854;2023-01-09T06:42:52;7.20;99.90
3528;DHT22;1778;47.966;7.854;2023-01-09T06:43:54;7.20;99.90
3528;DHT22;1778;47.966;7.854;2023-01-09T06:44:55;7.20;99.90
3528;DHT22;1778;47.966;7.854;2023-01-09T06:45:57;7.30;99.90
3528;DHT22;1778;47.966;7.854;2023-01-09T06:46:59;7.20;99.90
3528;DHT22;1778;47.966;7.854;2023-01-09T06:48:00;7.20;99.90
3528;DHT22;1778;47.966;7.854;2023-01-09T06:49:02;7.30;99.90
3528;DHT22;1778;47.966;7.854;2023-01-09T06:50:04;7.30;99.90
3528;DHT22;1778;47.966;7.854;2023-01-09T06:51:05;7.30;99.90
3528;DHT22;1778;47.966;7.854;2023-01-09T06:52:07;7.30;99.90
3528;DHT22;1778;47.966;7.854;2023-01-09T06:53:08;7.20;99.90
3528;DHT22;1778;47.966;7.854;2023-01-09T06:54:11;7.20;99.90
3528;DHT22;1778;47.966;7.854;2023-01-09T06:55:12;7.20;99.90
3528;DHT22;1778;47.966;7.854;2023-01-09T06:56:14;7.20;99.90
3528;DHT22;1778;47.966;7.854;2023-01-09T06:57:15;7.30;99.90
3528;DHT22;1778;47.966;7.854;2023-01-09T06:58:17;7.30;99.90
3528;DHT22;1778;47.966;7.854;2023-01-09T06:59:18;7.30;99.90
3528;DHT22;1778;47.966;7.854;2023-01-09T07:00:20;7.30;99.90
3528;DHT22;1778;47.966;7.854;2023-01-09T07:01:22;7.30;99.90
3528;DHT22;1778;47.966;7.854;2023-01-09T07:02:26;7.30;99.90
3528;DHT22;1778;47.966;7.854;2023-01-09T07:03:28;7.30;99.90
3528;DHT22;1778;47.966;7.854;2023-01-09T07:04:29;7.30;99.90
3528;DHT22;1778;47.966;7.854;2023-01-09T07:05:33;7.30;99.90
3528;DHT22;1778;47.966;7.854;2023-01-09T07:06:38;7.30;99.90
3528;DHT22;1778;47.966;7.854;2023-01-09T07:07:40;7.30;99.90
3528;DHT22;1778;47.966;7.854;2023-01-09T07:08:41;7.30;99.90
3528;DHT22;1778;47.966;7.854;2023-01-09T07:09:43;7.30;99.90
3528;DHT22;1778;47.966;7.854;2023-01-09T07:10:44;7.30;99.90
3528;DHT22;1778;47.966;7.854;2023-01-09T07:11:46;7.20;99.90
3528;DHT22;1778;47.966;7.854;2023-01-09T07:12:48;7.20;99.90
3528;DHT22;1778;47.966;7.854;2023-01-09T07:13:49;7.20;99.90
3528;DHT22;1778;47.966;7.854;2023-01-09T07:14:50;7.20;99.90
3528;DHT22;1778;47.966;7.854;2023-01-09T07:15:52;7.30;99.90
3528;DHT22;1778;47.966;7.854;2023-01-09T07:16:54;7.20;99.90
3528;DHT22;1778;47.966;7.854;2023-01-09T07:17:55;7.20;99.90
3528;DHT22;1778;47.966;7.854;2023-01-09T07:18:57;7.20;99.90
3528;DHT22;1778;47.966;7.854;2023-01-09T07:19:59;7.30;99.90
3528;DHT22;1778;47.966;7.854;2023-01-09T07:21:00;7.30;99.90
3528;DHT22;1778;47.966;7.854;2023-01-09T07:22:02;7.20;99.90
3528;DHT22;1778;47.966;7.854;2023-01-09T07:23:03;7.20;99.90
3528;DHT22;1778;47.966;7.854;2023-01-09T07:24:05;7.30;99.90
3528;DHT22;1778;47.966;7.854;2023-01-09T07:25:07;7.30;99.90
3528;DHT22;1778;47.966;7.854;2023-01-09T07:26:08;7.30;99.90
3528;DHT22;1778;47.966;7.854;2023-01-09T07:27:10;7.40;99.90
3528;DHT22;1778;47.966;7.854;2023-01-09T07:28:12;7.40;99.90